sensor_id;sensor_type;location;lat;lon;timestamp;P1;durP1;ratioP1;P2;durP2;ratioP2
80746;SDS011;76868;50.218;14.322;2024-03-29T00:01:06;2.60;;;1.90;;
80746;SDS011;76868;50.218;14.322;2024-03-29T00:03:32;4.18;;;2.50;;
80746;SDS011;76868;50.218;14.322;2024-03-29T00:05:57;6.30;;;3.58;;
80746;SDS011;76868;50.218;14.322;2024-03-29T00:08:22;7.60;;;4.65;;
80746;SDS011;76868;50.218;14.322;2024-03-29T00:10:48;7.93;;;4.03;;
80746;SDS011;76868;50.218;14.322;2024-03-29T00:13:13;3.83;;;2.47;;
80746;SDS011;76868;50.218;14.322;2024-03-29T00:15:39;8.80;;;4.72;;
80746;SDS011;76868;50.218;14.322;2024-03-29T00:18:06;13.77;;;8.38;;
80746;SDS011;76868;50.218;14.322;2024-03-29T00:20:31;6.82;;;3.60;;
80746;SDS011;76868;50.218;14.322;2024-03-29T00:22:56;3.92;;;2.70;;
80746;SDS011;76868;50.218;14.322;2024-03-29T00:25:22;4.65;;;2.85;;
80746;SDS011;76868;50.218;14.322;2024-03-29T00:27:47;4.78;;;2.40;;
80746;SDS011;76868;50.218;14.322;2024-03-29T00:30:13;6.22;;;2.55;;
80746;SDS011;76868;50.218;14.322;2024-03-29T00:32:39;5.13;;;2.47;;
80746;SDS011;76868;50.218;14.322;2024-03-29T00:35:04;6.00;;;3.40;;
80746;SDS011;76868;50.218;14.322;2024-03-29T00:37:30;5.68;;;3.20;;
80746;SDS011;76868;50.218;14.322;2024-03-29T00:39:55;9.05;;;4.90;;
80746;SDS011;76868;50.218;14.322;2024-03-29T00:42:21;8.65;;;4.93;;
80746;SDS011;76868;50.218;14.322;2024-03-29T00:44:46;9.80;;;4.72;;
80746;SDS011;76868;50.218;14.322;2024-03-29T00:47:12;18.33;;;8.85;;
80746;SDS011;76868;50.218;14.322;2024-03-29T00:49:38;21.20;;;10.38;;
80746;SDS011;76868;50.218;14.322;2024-03-29T00:52:04;8.50;;;4.80;;
80746;SDS011;76868;50.218;14.322;2024-03-29T00:54:29;12.38;;;6.03;;
80746;SDS011;76868;50.218;14.322;2024-03-29T00:56:56;14.18;;;7.22;;
80746;SDS011;76868;50.218;14.322;2024-03-29T00:59:21;12.10;;;6.13;;
80746;SDS011;76868;50.218;14.322;2024-03-29T01:01:47;12.77;;;5.82;;
80746;SDS011;76868;50.218;14.322;2024-03-29T01:04:13;8.57;;;4.18;;
80746;SDS011;76868;50.218;14.322;2024-03-29T01:06:38;12.57;;;5.05;;
80746;SDS011;76868;50.218;14.322;2024-03-29T01:09:05;15.95;;;7.35;;
80746;SDS011;76868;50.218;14.322;2024-03-29T01:11:30;19.52;;;9.15;;
80746;SDS011;76868;50.218;14.322;2024-03-29T01:13:56;19.30;;;7.43;;
80746;SDS011;76868;50.218;14.322;2024-03-29T01:16:22;15.02;;;6.65;;
80746;SDS011;76868;50.218;14.322;2024-03-29T01:18:47;13.18;;;5.97;;
80746;SDS011;76868;50.218;14.322;2024-03-29T01:21:13;16.92;;;7.65;;
80746;SDS011;76868;50.218;14.322;2024-03-29T01:23:38;19.52;;;9.15;;
80746;SDS011;76868;50.218;14.322;2024-03-29T01:26:07;17.83;;;8.15;;
80746;SDS011;76868;50.218;14.322;2024-03-29T01:28:32;16.23;;;6.57;;
80746;SDS011;76868;50.218;14.322;2024-03-29T01:30:58;21.30;;;8.95;;
80746;SDS011;76868;50.218;14.322;2024-03-29T01:33:24;19.40;;;7.68;;
80746;SDS011;76868;50.218;14.322;2024-03-29T01:35:50;18.05;;;6.43;;
80746;SDS011;76868;50.218;14.322;2024-03-29T01:38:15;15.68;;;6.20;;
80746;SDS011;76868;50.218;14.322;2024-03-29T01:40:41;45.42;;;15.50;;
80746;SDS011;76868;50.218;14.322;2024-03-29T01:43:07;45.08;;;17.52;;
80746;SDS011;76868;50.218;14.322;2024-03-29T01:45:34;47.35;;;21.20;;
80746;SDS011;76868;50.218;14.322;2024-03-29T01:48:03;17.02;;;7.40;;
80746;SDS011;76868;50.218;14.322;2024-03-29T01:50:29;28.20;;;11.70;;
80746;SDS011;76868;50.218;14.322;2024-03-29T01:52:54;17.90;;;7.50;;
80746;SDS011;76868;50.218;14.322;2024-03-29T01:55:20;11.30;;;4.13;;
80746;SDS011;76868;50.218;14.322;2024-03-29T01:57:45;14.52;;;6.72;;
80746;SDS011;76868;50.218;14.322;2024-03-29T02:00:11;14.35;;;5.80;;
80746;SDS011;76868;50.218;14.322;2024-03-29T02:02:37;6.82;;;3.03;;
80746;SDS011;76868;50.218;14.322;2024-03-29T02:05:02;2.70;;;1.85;;
80746;SDS011;76868;50.218;14.322;2024-03-29T02:09:55;2.95;;;1.65;;
80746;SDS011;76868;50.218;14.322;2024-03-29T02:12:20;3.30;;;1.65;;
80746;SDS011;76868;50.218;14.322;2024-03-29T02:14:45;1.63;;;1.20;;
80746;SDS011;76868;50.218;14.322;2024-03-29T02:17:11;1.98;;;1.60;;
80746;SDS011;76868;50.218;14.322;2024-03-29T02:19:36;5.22;;;1.60;;
80746;SDS011;76868;50.218;14.322;2024-03-29T02:22:01;4.85;;;1.80;;
80746;SDS011;76868;50.218;14.322;2024-03-29T02:24:30;2.85;;;1.70;;
80746;SDS011;76868;50.218;14.322;2024-03-29T02:26:56;2.55;;;1.60;;
80746;SDS011;76868;50.218;14.322;2024-03-29T02:29:22;5.50;;;1.90;;
80746;SDS011;76868;50.218;14.322;2024-03-29T02:31:48;2.35;;;1.42;;
80746;SDS011;76868;50.218;14.322;2024-03-29T02:34:14;3.13;;;1.73;;
80746;SDS011;76868;50.218;14.322;2024-03-29T02:36:40;4.28;;;1.90;;
80746;SDS011;76868;50.218;14.322;2024-03-29T02:39:07;2.72;;;1.40;;
80746;SDS011;76868;50.218;14.322;2024-03-29T02:41:32;2.50;;;1.65;;
80746;SDS011;76868;50.218;14.322;2024-03-29T02:43:57;3.17;;;1.70;;
80746;SDS011;76868;50.218;14.322;2024-03-29T02:46:23;3.72;;;1.83;;
80746;SDS011;76868;50.218;14.322;2024-03-29T02:48:49;3.67;;;1.70;;
80746;SDS011;76868;50.218;14.322;2024-03-29T02:51:14;2.40;;;1.58;;
80746;SDS011;76868;50.218;14.322;2024-03-29T02:53:39;2.25;;;1.33;;
80746;SDS011;76868;50.218;14.322;2024-03-29T02:56:05;2.13;;;1.35;;
80746;SDS011;76868;50.218;14.322;2024-03-29T02:58:32;4.57;;;2.38;;
80746;SDS011;76868;50.218;14.322;2024-03-29T03:01:04;4.40;;;2.55;;
80746;SDS011;76868;50.218;14.322;2024-03-29T03:03:30;12.13;;;5.95;;
80746;SDS011;76868;50.218;14.322;2024-03-29T03:05:56;5.03;;;3.28;;
80746;SDS011;76868;50.218;14.322;2024-03-29T03:08:21;6.10;;;3.28;;
80746;SDS011;76868;50.218;14.322;2024-03-29T03:11:05;6.78;;;3.40;;
80746;SDS011;76868;50.218;14.322;2024-03-29T03:13:31;6.18;;;2.88;;
80746;SDS011;76868;50.218;14.322;2024-03-29T03:15:56;8.40;;;4.72;;
80746;SDS011;76868;50.218;14.322;2024-03-29T03:18:22;5.55;;;3.13;;
80746;SDS011;76868;50.218;14.322;2024-03-29T03:20:54;5.22;;;2.90;;
80746;SDS011;76868;50.218;14.322;2024-03-29T03:23:20;8.95;;;3.67;;
80746;SDS011;76868;50.218;14.322;2024-03-29T03:25:59;5.25;;;2.33;;
80746;SDS011;76868;50.218;14.322;2024-03-29T03:28:26;4.00;;;1.60;;
80746;SDS011;76868;50.218;14.322;2024-03-29T03:30:52;3.13;;;2.03;;
80746;SDS011;76868;50.218;14.322;2024-03-29T03:33:18;2.55;;;1.90;;
80746;SDS011;76868;50.218;14.322;2024-03-29T03:35:44;3.70;;;1.55;;
80746;SDS011;76868;50.218;14.322;2024-03-29T03:38:10;4.60;;;1.83;;
80746;SDS011;76868;50.218;14.322;2024-03-29T03:40:36;3.85;;;1.75;;
80746;SDS011;76868;50.218;14.322;2024-03-29T03:43:02;5.15;;;2.08;;
80746;SDS011;76868;50.218;14.322;2024-03-29T03:45:28;5.38;;;1.80;;
80746;SDS011;76868;50.218;14.322;2024-03-29T03:47:54;2.97;;;1.65;;
80746;SDS011;76868;50.218;14.322;2024-03-29T03:50:19;4.93;;;1.80;;
80746;SDS011;76868;50.218;14.322;2024-03-29T03:52:45;4.75;;;2.47;;
80746;SDS011;76868;50.218;14.322;2024-03-29T03:55:10;3.03;;;1.80;;
80746;SDS011;76868;50.218;14.322;2024-03-29T03:57:35;3.45;;;2.13;;
80746;SDS011;76868;50.218;14.322;2024-03-29T04:00:01;2.50;;;1.67;;
80746;SDS011;76868;50.218;14.322;2024-03-29T04:02:28;2.78;;;1.70;;
80746;SDS011;76868;50.218;14.322;2024-03-29T04:04:53;4.60;;;2.17;;
80746;SDS011;76868;50.218;14.322;2024-03-29T04:07:19;5.30;;;2.92;;
80746;SDS011;76868;50.218;14.322;2024-03-29T04:09:45;5.78;;;2.25;;
80746;SDS011;76868;50.218;14.322;2024-03-29T04:12:10;6.78;;;2.10;;
80746;SDS011;76868;50.218;14.322;2024-03-29T04:14:36;3.42;;;2.10;;
80746;SDS011;76868;50.218;14.322;2024-03-29T04:17:02;3.38;;;2.03;;
80746;SDS011;76868;50.218;14.322;2024-03-29T04:19:27;5.13;;;1.90;;
80746;SDS011;76868;50.218;14.322;2024-03-29T04:21:52;3.55;;;1.83;;
80746;SDS011;76868;50.218;14.322;2024-03-29T04:24:18;5.03;;;2.72;;
80746;SDS011;76868;50.218;14.322;2024-03-29T04:26:43;6.32;;;3.17;;
80746;SDS011;76868;50.218;14.322;2024-03-29T04:29:09;23.30;;;10.13;;
80746;SDS011;76868;50.218;14.322;2024-03-29T04:34:01;46.27;;;19.33;;
80746;SDS011;76868;50.218;14.322;2024-03-29T04:36:27;39.58;;;16.35;;
80746;SDS011;76868;50.218;14.322;2024-03-29T04:38:52;18.92;;;9.48;;
80746;SDS011;76868;50.218;14.322;2024-03-29T04:41:18;16.08;;;7.25;;
80746;SDS011;76868;50.218;14.322;2024-03-29T04:43:44;23.88;;;10.52;;
80746;SDS011;76868;50.218;14.322;2024-03-29T04:46:10;25.15;;;12.98;;
80746;SDS011;76868;50.218;14.322;2024-03-29T04:48:36;30.52;;;12.95;;
80746;SDS011;76868;50.218;14.322;2024-03-29T04:51:03;24.92;;;11.05;;
80746;SDS011;76868;50.218;14.322;2024-03-29T04:53:28;20.55;;;9.48;;
80746;SDS011;76868;50.218;14.322;2024-03-29T04:55:54;19.75;;;8.38;;
80746;SDS011;76868;50.218;14.322;2024-03-29T04:58:23;18.88;;;7.85;;
80746;SDS011;76868;50.218;14.322;2024-03-29T05:00:49;16.48;;;8.45;;
80746;SDS011;76868;50.218;14.322;2024-03-29T05:03:19;16.60;;;7.35;;
80746;SDS011;76868;50.218;14.322;2024-03-29T05:05:45;15.80;;;6.72;;
80746;SDS011;76868;50.218;14.322;2024-03-29T05:08:11;7.88;;;3.63;;
80746;SDS011;76868;50.218;14.322;2024-03-29T05:10:38;5.65;;;3.15;;
80746;SDS011;76868;50.218;14.322;2024-03-29T05:13:04;7.50;;;3.78;;
80746;SDS011;76868;50.218;14.322;2024-03-29T05:15:30;10.82;;;5.30;;
80746;SDS011;76868;50.218;14.322;2024-03-29T05:17:55;7.68;;;3.95;;
80746;SDS011;76868;50.218;14.322;2024-03-29T05:20:21;6.68;;;3.75;;
80746;SDS011;76868;50.218;14.322;2024-03-29T05:22:46;3.92;;;2.15;;
80746;SDS011;76868;50.218;14.322;2024-03-29T05:25:11;2.38;;;1.60;;
80746;SDS011;76868;50.218;14.322;2024-03-29T05:27:37;3.17;;;1.30;;
80746;SDS011;76868;50.218;14.322;2024-03-29T05:30:02;4.35;;;1.70;;
80746;SDS011;76868;50.218;14.322;2024-03-29T05:32:29;2.22;;;1.20;;
80746;SDS011;76868;50.218;14.322;2024-03-29T05:34:55;3.30;;;1.35;;
80746;SDS011;76868;50.218;14.322;2024-03-29T05:37:20;2.63;;;1.10;;
80746;SDS011;76868;50.218;14.322;2024-03-29T05:39:46;3.95;;;2.28;;
80746;SDS011;76868;50.218;14.322;2024-03-29T05:42:12;11.50;;;5.85;;
80746;SDS011;76868;50.218;14.322;2024-03-29T05:44:38;2.92;;;1.92;;
80746;SDS011;76868;50.218;14.322;2024-03-29T05:47:03;4.90;;;2.67;;
80746;SDS011;76868;50.218;14.322;2024-03-29T05:49:31;9.25;;;3.75;;
80746;SDS011;76868;50.218;14.322;2024-03-29T05:51:58;6.43;;;2.95;;
80746;SDS011;76868;50.218;14.322;2024-03-29T05:54:23;3.58;;;1.08;;
80746;SDS011;76868;50.218;14.322;2024-03-29T05:56:49;4.95;;;1.90;;
80746;SDS011;76868;50.218;14.322;2024-03-29T05:59:15;1.75;;;1.20;;
80746;SDS011;76868;50.218;14.322;2024-03-29T06:01:40;2.15;;;1.10;;
80746;SDS011;76868;50.218;14.322;2024-03-29T06:04:05;4.45;;;1.50;;
80746;SDS011;76868;50.218;14.322;2024-03-29T06:06:39;2.60;;;1.10;;
80746;SDS011;76868;50.218;14.322;2024-03-29T06:09:04;2.35;;;1.17;;
80746;SDS011;76868;50.218;14.322;2024-03-29T06:11:30;2.00;;;0.90;;
80746;SDS011;76868;50.218;14.322;2024-03-29T06:13:56;1.13;;;0.80;;
80746;SDS011;76868;50.218;14.322;2024-03-29T06:16:21;1.13;;;0.85;;
80746;SDS011;76868;50.218;14.322;2024-03-29T06:19:08;0.93;;;0.75;;
80746;SDS011;76868;50.218;14.322;2024-03-29T06:21:34;2.70;;;0.90;;
80746;SDS011;76868;50.218;14.322;2024-03-29T06:24:06;2.17;;;1.05;;
80746;SDS011;76868;50.218;14.322;2024-03-29T06:26:32;2.00;;;0.88;;
80746;SDS011;76868;50.218;14.322;2024-03-29T06:28:57;1.45;;;0.90;;
80746;SDS011;76868;50.218;14.322;2024-03-29T06:31:23;1.85;;;1.20;;
80746;SDS011;76868;50.218;14.322;2024-03-29T06:33:48;0.80;;;0.60;;
80746;SDS011;76868;50.218;14.322;2024-03-29T06:36:13;1.85;;;1.20;;
80746;SDS011;76868;50.218;14.322;2024-03-29T06:38:39;3.05;;;1.17;;
80746;SDS011;76868;50.218;14.322;2024-03-29T06:41:04;0.90;;;0.70;;
80746;SDS011;76868;50.218;14.322;2024-03-29T06:43:29;2.17;;;0.95;;
80746;SDS011;76868;50.218;14.322;2024-03-29T06:45:55;2.08;;;0.90;;
80746;SDS011;76868;50.218;14.322;2024-03-29T06:48:21;1.92;;;0.90;;
80746;SDS011;76868;50.218;14.322;2024-03-29T06:50:46;3.60;;;1.20;;
80746;SDS011;76868;50.218;14.322;2024-03-29T06:53:12;1.63;;;0.80;;
80746;SDS011;76868;50.218;14.322;2024-03-29T06:55:37;2.30;;;0.93;;
80746;SDS011;76868;50.218;14.322;2024-03-29T06:58:02;1.73;;;1.00;;
80746;SDS011;76868;50.218;14.322;2024-03-29T07:00:28;2.53;;;1.00;;
80746;SDS011;76868;50.218;14.322;2024-03-29T07:02:53;2.55;;;1.00;;
80746;SDS011;76868;50.218;14.322;2024-03-29T07:05:19;1.52;;;0.70;;
80746;SDS011;76868;50.218;14.322;2024-03-29T07:07:44;2.05;;;0.85;;
80746;SDS011;76868;50.218;14.322;2024-03-29T07:10:12;1.83;;;0.73;;
80746;SDS011;76868;50.218;14.322;2024-03-29T07:12:38;1.83;;;0.82;;
80746;SDS011;76868;50.218;14.322;2024-03-29T07:15:03;0.50;;;0.50;;
80746;SDS011;76868;50.218;14.322;2024-03-29T07:17:29;3.08;;;0.75;;
80746;SDS011;76868;50.218;14.322;2024-03-29T07:19:54;4.15;;;1.13;;
80746;SDS011;76868;50.218;14.322;2024-03-29T07:22:20;6.32;;;2.58;;
80746;SDS011;76868;50.218;14.322;2024-03-29T07:24:45;6.28;;;1.73;;
80746;SDS011;76868;50.218;14.322;2024-03-29T07:27:10;2.20;;;0.63;;
80746;SDS011;76868;50.218;14.322;2024-03-29T07:29:37;3.35;;;1.27;;
80746;SDS011;76868;50.218;14.322;2024-03-29T07:32:03;2.75;;;0.80;;
80746;SDS011;76868;50.218;14.322;2024-03-29T07:34:30;7.70;;;1.67;;
80746;SDS011;76868;50.218;14.322;2024-03-29T07:36:55;4.78;;;2.10;;
80746;SDS011;76868;50.218;14.322;2024-03-29T07:39:20;1.10;;;0.70;;
80746;SDS011;76868;50.218;14.322;2024-03-29T07:41:47;1.27;;;0.50;;
80746;SDS011;76868;50.218;14.322;2024-03-29T07:44:13;1.75;;;0.88;;
80746;SDS011;76868;50.218;14.322;2024-03-29T07:46:38;11.23;;;4.70;;
80746;SDS011;76868;50.218;14.322;2024-03-29T07:49:05;2.47;;;1.02;;
80746;SDS011;76868;50.218;14.322;2024-03-29T07:51:30;0.63;;;0.40;;
80746;SDS011;76868;50.218;14.322;2024-03-29T07:53:56;2.33;;;0.50;;
80746;SDS011;76868;50.218;14.322;2024-03-29T07:56:21;3.17;;;0.60;;
80746;SDS011;76868;50.218;14.322;2024-03-29T07:58:54;1.33;;;0.50;;
80746;SDS011;76868;50.218;14.322;2024-03-29T08:01:20;1.55;;;0.85;;
80746;SDS011;76868;50.218;14.322;2024-03-29T08:03:46;1.83;;;0.80;;
80746;SDS011;76868;50.218;14.322;2024-03-29T08:06:12;4.32;;;1.40;;
80746;SDS011;76868;50.218;14.322;2024-03-29T08:08:37;7.30;;;3.13;;
80746;SDS011;76868;50.218;14.322;2024-03-29T08:11:03;7.55;;;2.25;;
80746;SDS011;76868;50.218;14.322;2024-03-29T08:13:28;3.08;;;0.77;;
80746;SDS011;76868;50.218;14.322;2024-03-29T08:15:57;2.13;;;0.75;;
80746;SDS011;76868;50.218;14.322;2024-03-29T08:18:24;2.85;;;0.68;;
80746;SDS011;76868;50.218;14.322;2024-03-29T08:20:49;3.15;;;1.23;;
80746;SDS011;76868;50.218;14.322;2024-03-29T08:23:14;1.75;;;0.57;;
80746;SDS011;76868;50.218;14.322;2024-03-29T08:25:40;3.08;;;0.85;;
80746;SDS011;76868;50.218;14.322;2024-03-29T08:28:05;2.72;;;0.90;;
80746;SDS011;76868;50.218;14.322;2024-03-29T08:30:31;1.33;;;0.40;;
80746;SDS011;76868;50.218;14.322;2024-03-29T08:33:02;1.25;;;0.73;;
80746;SDS011;76868;50.218;14.322;2024-03-29T08:35:35;0.85;;;0.40;;
80746;SDS011;76868;50.218;14.322;2024-03-29T08:38:00;1.60;;;0.40;;
80746;SDS011;76868;50.218;14.322;2024-03-29T08:40:27;1.63;;;0.50;;
80746;SDS011;76868;50.218;14.322;2024-03-29T08:42:54;0.85;;;0.45;;
80746;SDS011;76868;50.218;14.322;2024-03-29T08:45:21;2.42;;;0.50;;
80746;SDS011;76868;50.218;14.322;2024-03-29T08:47:46;2.92;;;0.80;;
80746;SDS011;76868;50.218;14.322;2024-03-29T08:50:12;2.47;;;0.50;;
80746;SDS011;76868;50.218;14.322;2024-03-29T08:52:38;0.90;;;0.52;;
80746;SDS011;76868;50.218;14.322;2024-03-29T08:57:29;1.92;;;0.60;;
80746;SDS011;76868;50.218;14.322;2024-03-29T08:59:54;1.50;;;0.50;;
80746;SDS011;76868;50.218;14.322;2024-03-29T09:02:20;1.50;;;0.50;;
80746;SDS011;76868;50.218;14.322;2024-03-29T09:04:45;1.60;;;0.40;;
80746;SDS011;76868;50.218;14.322;2024-03-29T09:07:10;1.15;;;0.40;;
80746;SDS011;76868;50.218;14.322;2024-03-29T09:09:36;1.02;;;0.47;;
80746;SDS011;76868;50.218;14.322;2024-03-29T09:12:04;2.05;;;0.60;;
80746;SDS011;76868;50.218;14.322;2024-03-29T09:14:30;0.82;;;0.50;;
80746;SDS011;76868;50.218;14.322;2024-03-29T09:16:55;1.60;;;0.70;;
80746;SDS011;76868;50.218;14.322;2024-03-29T09:19:21;2.08;;;0.65;;
80746;SDS011;76868;50.218;14.322;2024-03-29T09:21:46;5.50;;;0.70;;
80746;SDS011;76868;50.218;14.322;2024-03-29T09:24:16;2.33;;;1.65;;
80746;SDS011;76868;50.218;14.322;2024-03-29T09:26:42;2.47;;;1.40;;
80746;SDS011;76868;50.218;14.322;2024-03-29T09:29:10;1.73;;;0.60;;
80746;SDS011;76868;50.218;14.322;2024-03-29T09:31:38;0.70;;;0.32;;
80746;SDS011;76868;50.218;14.322;2024-03-29T09:34:03;1.25;;;0.50;;
80746;SDS011;76868;50.218;14.322;2024-03-29T09:36:28;2.10;;;0.73;;
80746;SDS011;76868;50.218;14.322;2024-03-29T09:38:54;0.95;;;0.60;;
80746;SDS011;76868;50.218;14.322;2024-03-29T09:41:19;2.05;;;1.02;;
80746;SDS011;76868;50.218;14.322;2024-03-29T09:43:46;7.22;;;1.05;;
80746;SDS011;76868;50.218;14.322;2024-03-29T09:46:12;4.70;;;1.02;;
80746;SDS011;76868;50.218;14.322;2024-03-29T09:48:42;2.13;;;0.80;;
80746;SDS011;76868;50.218;14.322;2024-03-29T09:51:10;0.65;;;0.40;;
80746;SDS011;76868;50.218;14.322;2024-03-29T09:53:39;2.60;;;0.77;;
80746;SDS011;76868;50.218;14.322;2024-03-29T09:56:07;2.28;;;0.90;;
80746;SDS011;76868;50.218;14.322;2024-03-29T09:58:33;1.38;;;0.68;;
80746;SDS011;76868;50.218;14.322;2024-03-29T10:01:00;1.67;;;0.60;;
80746;SDS011;76868;50.218;14.322;2024-03-29T10:03:31;2.08;;;0.28;;
80746;SDS011;76868;50.218;14.322;2024-03-29T10:06:00;2.08;;;0.52;;
80746;SDS011;76868;50.218;14.322;2024-03-29T10:10:52;0.40;;;0.20;;
80746;SDS011;76868;50.218;14.322;2024-03-29T10:13:19;0.77;;;0.30;;
80746;SDS011;76868;50.218;14.322;2024-03-29T10:15:46;1.70;;;0.38;;
80746;SDS011;76868;50.218;14.322;2024-03-29T10:18:25;1.13;;;0.30;;
80746;SDS011;76868;50.218;14.322;2024-03-29T10:20:59;0.85;;;0.40;;
80746;SDS011;76868;50.218;14.322;2024-03-29T10:23:29;0.80;;;0.40;;
80746;SDS011;76868;50.218;14.322;2024-03-29T10:25:55;1.05;;;0.40;;
80746;SDS011;76868;50.218;14.322;2024-03-29T10:28:21;2.25;;;1.05;;
80746;SDS011;76868;50.218;14.322;2024-03-29T10:33:13;1.08;;;0.50;;
80746;SDS011;76868;50.218;14.322;2024-03-29T10:35:41;5.90;;;2.50;;
80746;SDS011;76868;50.218;14.322;2024-03-29T10:38:10;6.93;;;3.28;;
80746;SDS011;76868;50.218;14.322;2024-03-29T10:40:39;31.00;;;14.98;;
80746;SDS011;76868;50.218;14.322;2024-03-29T10:43:09;17.30;;;7.85;;
80746;SDS011;76868;50.218;14.322;2024-03-29T10:45:39;2.55;;;0.70;;
80746;SDS011;76868;50.218;14.322;2024-03-29T10:48:05;2.53;;;1.20;;
80746;SDS011;76868;50.218;14.322;2024-03-29T10:50:36;0.80;;;0.40;;
80746;SDS011;76868;50.218;14.322;2024-03-29T10:53:04;43.05;;;15.68;;
80746;SDS011;76868;50.218;14.322;2024-03-29T10:55:30;22.17;;;8.55;;
80746;SDS011;76868;50.218;14.322;2024-03-29T10:57:58;121.68;;;48.15;;
80746;SDS011;76868;50.218;14.322;2024-03-29T11:00:26;50.63;;;22.23;;
80746;SDS011;76868;50.218;14.322;2024-03-29T11:05:38;24.27;;;8.20;;
80746;SDS011;76868;50.218;14.322;2024-03-29T11:08:09;21.05;;;7.68;;
80746;SDS011;76868;50.218;14.322;2024-03-29T11:10:36;65.53;;;24.83;;
80746;SDS011;76868;50.218;14.322;2024-03-29T11:15:37;24.83;;;9.43;;
80746;SDS011;76868;50.218;14.322;2024-03-29T11:18:03;115.80;;;39.45;;
80746;SDS011;76868;50.218;14.322;2024-03-29T11:20:29;28.00;;;10.90;;
80746;SDS011;76868;50.218;14.322;2024-03-29T11:23:03;45.78;;;15.90;;
80746;SDS011;76868;50.218;14.322;2024-03-29T11:28:34;134.43;;;48.42;;
80746;SDS011;76868;50.218;14.322;2024-03-29T11:35:56;10.88;;;6.05;;
80746;SDS011;76868;50.218;14.322;2024-03-29T11:38:34;11.90;;;8.60;;
80746;SDS011;76868;50.218;14.322;2024-03-29T11:41:01;10.00;;;5.50;;
80746;SDS011;76868;50.218;14.322;2024-03-29T11:43:31;4.30;;;2.28;;
80746;SDS011;76868;50.218;14.322;2024-03-29T11:45:58;4.95;;;3.10;;
80746;SDS011;76868;50.218;14.322;2024-03-29T11:48:26;2.05;;;1.20;;
80746;SDS011;76868;50.218;14.322;2024-03-29T11:50:53;2.78;;;1.55;;
80746;SDS011;76868;50.218;14.322;2024-03-29T11:53:19;3.13;;;2.00;;
80746;SDS011;76868;50.218;14.322;2024-03-29T11:55:44;2.50;;;1.70;;
80746;SDS011;76868;50.218;14.322;2024-03-29T11:58:10;3.38;;;1.45;;
80746;SDS011;76868;50.218;14.322;2024-03-29T12:00:37;7.72;;;5.53;;
80746;SDS011;76868;50.218;14.322;2024-03-29T12:03:03;7.05;;;5.47;;
80746;SDS011;76868;50.218;14.322;2024-03-29T12:05:29;3.72;;;2.58;;
80746;SDS011;76868;50.218;14.322;2024-03-29T12:07:55;4.47;;;2.70;;
80746;SDS011;76868;50.218;14.322;2024-03-29T12:12:47;10.48;;;6.40;;
80746;SDS011;76868;50.218;14.322;2024-03-29T12:15:13;5.80;;;3.42;;
80746;SDS011;76868;50.218;14.322;2024-03-29T12:17:38;22.20;;;11.43;;
80746;SDS011;76868;50.218;14.322;2024-03-29T12:20:04;18.80;;;10.23;;
80746;SDS011;76868;50.218;14.322;2024-03-29T12:22:35;40.60;;;20.48;;
80746;SDS011;76868;50.218;14.322;2024-03-29T12:25:01;31.70;;;16.42;;
80746;SDS011;76868;50.218;14.322;2024-03-29T12:27:27;78.20;;;37.50;;
80746;SDS011;76868;50.218;14.322;2024-03-29T12:29:52;48.63;;;25.55;;
80746;SDS011;76868;50.218;14.322;2024-03-29T12:32:18;160.52;;;63.03;;
80746;SDS011;76868;50.218;14.322;2024-03-29T12:34:45;44.58;;;28.85;;
80746;SDS011;76868;50.218;14.322;2024-03-29T12:37:10;44.13;;;28.27;;
80746;SDS011;76868;50.218;14.322;2024-03-29T12:39:37;26.88;;;18.58;;
80746;SDS011;76868;50.218;14.322;2024-03-29T12:42:04;25.92;;;15.68;;
80746;SDS011;76868;50.218;14.322;2024-03-29T12:44:30;110.45;;;54.60;;
80746;SDS011;76868;50.218;14.322;2024-03-29T12:46:57;134.48;;;69.40;;
80746;SDS011;76868;50.218;14.322;2024-03-29T12:49:26;67.05;;;34.08;;
80746;SDS011;76868;50.218;14.322;2024-03-29T12:51:51;109.00;;;56.90;;
80746;SDS011;76868;50.218;14.322;2024-03-29T12:54:17;99.80;;;46.95;;
80746;SDS011;76868;50.218;14.322;2024-03-29T12:56:43;39.53;;;18.90;;
80746;SDS011;76868;50.218;14.322;2024-03-29T12:59:09;15.27;;;8.98;;
80746;SDS011;76868;50.218;14.322;2024-03-29T13:01:35;12.90;;;7.80;;
80746;SDS011;76868;50.218;14.322;2024-03-29T13:04:00;4.97;;;2.63;;
80746;SDS011;76868;50.218;14.322;2024-03-29T13:06:25;19.48;;;6.32;;
80746;SDS011;76868;50.218;14.322;2024-03-29T13:08:51;141.80;;;42.17;;
80746;SDS011;76868;50.218;14.322;2024-03-29T13:11:18;65.53;;;23.63;;
80746;SDS011;76868;50.218;14.322;2024-03-29T13:13:44;12.30;;;5.88;;
80746;SDS011;76868;50.218;14.322;2024-03-29T13:16:09;107.30;;;32.63;;
80746;SDS011;76868;50.218;14.322;2024-03-29T13:18:34;34.88;;;13.85;;
80746;SDS011;76868;50.218;14.322;2024-03-29T13:21:00;52.20;;;20.58;;
80746;SDS011;76868;50.218;14.322;2024-03-29T13:23:27;26.58;;;14.43;;
80746;SDS011;76868;50.218;14.322;2024-03-29T13:25:52;43.67;;;24.48;;
80746;SDS011;76868;50.218;14.322;2024-03-29T13:28:20;17.08;;;8.88;;
80746;SDS011;76868;50.218;14.322;2024-03-29T13:30:45;13.18;;;6.32;;
80746;SDS011;76868;50.218;14.322;2024-03-29T13:33:13;7.53;;;3.58;;
80746;SDS011;76868;50.218;14.322;2024-03-29T13:35:38;9.10;;;4.22;;
80746;SDS011;76868;50.218;14.322;2024-03-29T13:38:04;52.40;;;24.10;;
80746;SDS011;76868;50.218;14.322;2024-03-29T13:40:29;20.70;;;10.07;;
80746;SDS011;76868;50.218;14.322;2024-03-29T13:42:57;11.57;;;6.63;;
80746;SDS011;76868;50.218;14.322;2024-03-29T13:45:22;19.92;;;10.10;;
80746;SDS011;76868;50.218;14.322;2024-03-29T13:47:50;6.75;;;3.80;;
80746;SDS011;76868;50.218;14.322;2024-03-29T13:50:16;8.50;;;4.95;;
80746;SDS011;76868;50.218;14.322;2024-03-29T13:52:41;10.57;;;5.55;;
80746;SDS011;76868;50.218;14.322;2024-03-29T13:55:08;8.65;;;4.60;;
80746;SDS011;76868;50.218;14.322;2024-03-29T13:57:33;19.17;;;9.38;;
80746;SDS011;76868;50.218;14.322;2024-03-29T13:59:59;32.28;;;15.95;;
80746;SDS011;76868;50.218;14.322;2024-03-29T14:02:24;24.92;;;14.93;;
80746;SDS011;76868;50.218;14.322;2024-03-29T14:04:52;22.77;;;12.63;;
80746;SDS011;76868;50.218;14.322;2024-03-29T14:07:18;9.48;;;5.10;;
80746;SDS011;76868;50.218;14.322;2024-03-29T14:09:43;5.40;;;3.35;;
80746;SDS011;76868;50.218;14.322;2024-03-29T14:12:10;12.25;;;7.32;;
80746;SDS011;76868;50.218;14.322;2024-03-29T14:14:35;5.60;;;3.08;;
80746;SDS011;76868;50.218;14.322;2024-03-29T14:17:02;2.75;;;1.50;;
80746;SDS011;76868;50.218;14.322;2024-03-29T14:19:34;6.88;;;3.42;;
80746;SDS011;76868;50.218;14.322;2024-03-29T14:22:03;11.30;;;6.93;;
80746;SDS011;76868;50.218;14.322;2024-03-29T14:24:29;17.05;;;9.32;;
80746;SDS011;76868;50.218;14.322;2024-03-29T14:29:24;8.93;;;5.13;;
80746;SDS011;76868;50.218;14.322;2024-03-29T14:31:49;6.50;;;4.15;;
80746;SDS011;76868;50.218;14.322;2024-03-29T14:34:15;4.22;;;2.08;;
80746;SDS011;76868;50.218;14.322;2024-03-29T14:36:41;4.07;;;1.95;;
80746;SDS011;76868;50.218;14.322;2024-03-29T14:39:07;1.00;;;0.45;;
80746;SDS011;76868;50.218;14.322;2024-03-29T14:41:32;2.13;;;0.95;;
80746;SDS011;76868;50.218;14.322;2024-03-29T14:44:01;1.00;;;0.45;;
80746;SDS011;76868;50.218;14.322;2024-03-29T14:46:27;0.85;;;0.40;;
80746;SDS011;76868;50.218;14.322;2024-03-29T14:49:00;1.85;;;0.65;;
80746;SDS011;76868;50.218;14.322;2024-03-29T14:51:32;6.97;;;2.70;;
80746;SDS011;76868;50.218;14.322;2024-03-29T14:53:58;9.00;;;4.50;;